createdAt,value
2022-10-26T00:02:16.679Z,3.35
2022-10-26T00:04:21.580Z,3.50
2022-10-26T00:06:29.059Z,3.47
2022-10-26T00:08:33.875Z,2.95
2022-10-26T00:10:39.617Z,3.15
2022-10-26T00:12:47.261Z,3.15
2022-10-26T00:14:52.181Z,2.85
2022-10-26T00:16:57.014Z,3.03
2022-10-26T00:19:01.880Z,3.30
2022-10-26T00:21:07.191Z,3.35
2022-10-26T00:25:16.464Z,2.78
2022-10-26T00:27:21.219Z,3.30
2022-10-26T00:29:31.116Z,2.72
2022-10-26T00:31:36.357Z,2.80
2022-10-26T00:35:46.369Z,3.20
2022-10-26T00:37:51.553Z,3.00
2022-10-26T00:39:56.398Z,2.90
2022-10-26T00:42:01.143Z,2.90
2022-10-26T00:44:36.868Z,3.00
2022-10-26T00:46:44.455Z,3.08
2022-10-26T00:48:52.814Z,2.85
2022-10-26T00:51:01.568Z,3.33
2022-10-26T00:53:08.132Z,2.90
2022-10-26T00:55:13.434Z,2.67
2022-10-26T00:57:20.137Z,2.83
2022-10-26T00:59:26.053Z,2.90
2022-10-26T01:01:31.743Z,3.10
2022-10-26T01:03:40.883Z,3.30
2022-10-26T01:05:48.270Z,3.45
2022-10-26T01:07:54.584Z,3.20
2022-10-26T01:10:00.269Z,2.92
2022-10-26T01:12:05.021Z,3.15
2022-10-26T01:14:12.733Z,3.22
2022-10-26T01:16:43.424Z,4.00
2022-10-26T01:19:02.303Z,3.75
2022-10-26T01:21:45.504Z,3.50
2022-10-26T01:24:09.917Z,3.30
2022-10-26T01:26:47.559Z,3.35
2022-10-26T01:29:25.881Z,3.50
2022-10-26T01:31:37.359Z,3.35
2022-10-26T01:33:47.759Z,3.70
2022-10-26T01:36:01.074Z,3.05
2022-10-26T01:38:12.471Z,3.10
2022-10-26T01:40:22.488Z,3.22
2022-10-26T01:42:29.311Z,3.30
2022-10-26T01:44:41.987Z,3.38
2022-10-26T01:46:52.941Z,3.38
2022-10-26T01:49:02.479Z,3.60
2022-10-26T01:51:09.125Z,3.65
2022-10-26T01:53:15.334Z,3.53
2022-10-26T01:55:43.453Z,3.35
2022-10-26T01:57:48.614Z,3.10
2022-10-26T02:00:10.968Z,3.60
2022-10-26T02:02:38.304Z,3.83
2022-10-26T02:04:54.769Z,3.25
2022-10-26T02:07:06.168Z,3.10
2022-10-26T02:09:23.112Z,2.90
2022-10-26T02:11:39.379Z,2.85
2022-10-26T02:13:49.661Z,3.17
2022-10-26T02:15:58.377Z,3.00
2022-10-26T02:18:12.582Z,3.17
2022-10-26T02:20:24.778Z,3.00
2022-10-26T02:22:35.211Z,2.75
2022-10-26T02:24:40.785Z,2.85
2022-10-26T02:26:49.183Z,2.95
2022-10-26T02:28:56.805Z,2.97
2022-10-26T02:31:04.154Z,3.00
2022-10-26T02:33:13.817Z,2.35
2022-10-26T02:35:20.348Z,3.75
2022-10-26T02:37:27.246Z,2.70
2022-10-26T02:39:36.429Z,6.32
2022-10-26T02:41:43.642Z,5.47
2022-10-26T02:43:56.949Z,4.53
2022-10-26T02:46:08.481Z,4.82
2022-10-26T02:48:15.980Z,4.97
2022-10-26T02:50:22.303Z,4.20
2022-10-26T02:52:33.270Z,3.53
2022-10-26T02:54:49.094Z,3.35
2022-10-26T02:56:58.401Z,2.70
2022-10-26T02:59:08.223Z,2.55
2022-10-26T03:01:13.191Z,2.50
2022-10-26T03:03:22.477Z,2.80
2022-10-26T03:05:29.650Z,2.63
2022-10-26T03:07:34.572Z,2.40
2022-10-26T03:09:39.319Z,3.08
2022-10-26T03:11:44.070Z,2.50
2022-10-26T03:13:49.050Z,2.40
2022-10-26T03:15:53.786Z,2.70
2022-10-26T03:17:58.453Z,2.65
2022-10-26T03:20:06.985Z,2.65
2022-10-26T03:22:11.717Z,2.42
2022-10-26T03:24:16.485Z,2.47
2022-10-26T03:26:21.236Z,2.08
2022-10-26T03:28:26.048Z,2.00
2022-10-26T03:30:32.076Z,3.10
2022-10-26T03:32:36.944Z,2.30
2022-10-26T03:34:41.659Z,2.60
2022-10-26T03:36:49.177Z,2.53
2022-10-26T03:38:53.934Z,2.25
2022-10-26T03:40:58.797Z,2.75
2022-10-26T03:43:03.481Z,2.72
2022-10-26T03:45:10.160Z,2.38
2022-10-26T03:47:14.920Z,2.80
2022-10-26T03:49:19.662Z,2.83
2022-10-26T03:51:24.543Z,2.97
2022-10-26T03:53:31.951Z,3.35
2022-10-26T03:55:36.766Z,3.35
2022-10-26T03:57:45.380Z,3.60
2022-10-26T03:59:50.117Z,3.38
2022-10-26T04:01:57.668Z,3.35
2022-10-26T04:04:03.028Z,3.47
2022-10-26T04:06:08.417Z,2.85
2022-10-26T04:08:13.115Z,3.30
2022-10-26T04:10:20.741Z,3.15
2022-10-26T04:12:27.543Z,3.25
2022-10-26T04:14:32.270Z,3.20
2022-10-26T04:16:37.186Z,3.17
2022-10-26T04:18:41.920Z,3.20
2022-10-26T04:20:47.026Z,3.50
2022-10-26T04:22:59.585Z,3.45
2022-10-26T04:25:04.286Z,2.78
2022-10-26T04:27:11.610Z,3.30
2022-10-26T04:29:16.718Z,3.28
2022-10-26T04:31:21.428Z,2.67
2022-10-26T04:33:26.291Z,3.00
2022-10-26T04:35:31.673Z,3.05
2022-10-26T04:37:36.749Z,4.53
2022-10-26T04:39:41.498Z,4.40
2022-10-26T04:41:46.273Z,5.47
2022-10-26T04:43:53.656Z,5.15
2022-10-26T04:45:58.836Z,5.05
2022-10-26T04:50:13.835Z,6.03
2022-10-26T04:52:18.584Z,4.88
2022-10-26T04:54:23.568Z,5.38
2022-10-26T04:56:31.441Z,5.57
2022-10-26T04:58:36.199Z,6.70
2022-10-26T05:00:43.623Z,6.65
2022-10-26T05:02:48.359Z,4.97
2022-10-26T05:04:53.156Z,4.15
2022-10-26T05:06:57.953Z,4.03
2022-10-26T05:09:02.711Z,3.42
2022-10-26T05:11:07.742Z,2.60
2022-10-26T05:15:17.356Z,3.08
2022-10-26T05:17:24.697Z,3.38
2022-10-26T05:19:29.746Z,2.90
2022-10-26T05:21:34.580Z,3.20
2022-10-26T05:23:39.341Z,3.53
2022-10-26T05:25:44.521Z,3.90
2022-10-26T05:27:49.235Z,4.57
2022-10-26T05:29:54.010Z,4.30
2022-10-26T05:31:58.798Z,4.40
2022-10-26T05:34:06.297Z,3.70
2022-10-26T05:36:11.494Z,4.65
2022-10-26T05:40:22.506Z,4.03
2022-10-26T05:42:27.547Z,3.70
2022-10-26T05:46:36.918Z,3.33
2022-10-26T05:48:41.639Z,2.95
2022-10-26T05:50:49.524Z,3.10
2022-10-26T05:52:55.450Z,3.58
2022-10-26T05:55:00.248Z,2.90
2022-10-26T05:57:09.218Z,2.92
2022-10-26T05:59:17.398Z,3.47
2022-10-26T06:01:33.329Z,3.55
2022-10-26T06:03:50.376Z,3.30
2022-10-26T06:06:02.589Z,3.08
2022-10-26T06:08:13.181Z,3.38
2022-10-26T06:10:19.129Z,3.25
2022-10-26T06:12:26.092Z,3.42
2022-10-26T06:14:31.329Z,2.72
2022-10-26T06:16:47.249Z,3.08
2022-10-26T06:19:02.856Z,2.72
2022-10-26T06:23:50.361Z,3.08
2022-10-26T06:26:04.009Z,3.30
2022-10-26T06:28:19.727Z,3.40
2022-10-26T06:30:24.733Z,3.42
2022-10-26T06:32:31.825Z,3.67
2022-10-26T06:34:39.847Z,3.30
2022-10-26T06:36:47.500Z,3.33
2022-10-26T06:38:58.033Z,3.38
2022-10-26T06:41:03.321Z,3.70
2022-10-26T06:43:14.730Z,2.88
2022-10-26T06:45:20.857Z,3.50
2022-10-26T06:47:31.350Z,3.35
2022-10-26T06:49:41.026Z,3.20
2022-10-26T06:51:54.195Z,3.83
2022-10-26T06:54:08.450Z,3.63
2022-10-26T06:56:15.666Z,2.85
2022-10-26T06:58:22.206Z,3.65
2022-10-26T07:00:29.895Z,3.65
2022-10-26T07:02:34.896Z,2.78
2022-10-26T07:04:39.705Z,3.28
2022-10-26T07:06:44.848Z,3.45
2022-10-26T07:10:56.827Z,3.15
2022-10-26T07:13:01.601Z,2.90
2022-10-26T07:17:15.085Z,2.72
2022-10-26T07:19:19.819Z,2.63
2022-10-26T07:21:24.587Z,3.03
2022-10-26T07:25:40.509Z,2.38
2022-10-26T07:27:45.618Z,2.63
2022-10-26T07:29:50.421Z,2.60
2022-10-26T07:31:56.056Z,2.65
2022-10-26T07:34:00.909Z,2.80
2022-10-26T07:36:05.651Z,2.30
2022-10-26T07:38:11.283Z,2.90
2022-10-26T07:40:16.452Z,2.78
2022-10-26T07:44:31.298Z,2.80
2022-10-26T07:46:36.042Z,2.72
2022-10-26T07:48:41.274Z,2.63
2022-10-26T07:50:46.040Z,2.60
2022-10-26T07:52:51.131Z,2.80
2022-10-26T07:54:56.234Z,3.08
2022-10-26T07:57:03.011Z,2.22
2022-10-26T07:59:10.618Z,2.65
2022-10-26T08:01:17.866Z,2.55
2022-10-26T08:03:23.833Z,2.30
2022-10-26T08:07:35.488Z,2.60
2022-10-26T08:09:40.218Z,2.40
2022-10-26T08:11:45.085Z,3.00
2022-10-26T08:16:02.871Z,2.65
2022-10-26T08:18:08.494Z,2.40
2022-10-26T08:20:14.534Z,2.67
2022-10-26T08:22:19.383Z,2.85
2022-10-26T08:24:25.593Z,2.08
2022-10-26T08:26:30.746Z,2.42
2022-10-26T08:30:40.040Z,2.30
2022-10-26T08:32:47.726Z,2.90
2022-10-26T08:34:52.915Z,2.60
2022-10-26T08:36:57.708Z,2.75
2022-10-26T08:39:02.553Z,2.85
2022-10-26T08:41:11.701Z,2.70
2022-10-26T08:43:22.512Z,2.20
2022-10-26T08:45:36.926Z,2.25
2022-10-26T08:47:52.617Z,4.82
2022-10-26T08:50:02.922Z,2.67
2022-10-26T08:52:12.150Z,2.45
2022-10-26T08:54:22.315Z,2.10
2022-10-26T08:56:29.629Z,2.28
2022-10-26T08:58:41.509Z,1.92
2022-10-26T09:00:47.104Z,2.20
2022-10-26T09:02:56.050Z,2.38
2022-10-26T09:05:02.166Z,2.20
2022-10-26T09:07:14.957Z,2.47
2022-10-26T09:09:24.891Z,2.45
2022-10-26T09:11:52.882Z,2.00
2022-10-26T09:14:07.561Z,2.30
2022-10-26T09:16:25.691Z,1.90
2022-10-26T09:18:43.039Z,2.17
2022-10-26T09:21:11.121Z,1.85
2022-10-26T09:23:30.470Z,2.28
2022-10-26T09:25:42.645Z,2.22
2022-10-26T09:27:52.366Z,2.22
2022-10-26T09:29:59.376Z,2.10
2022-10-26T09:32:06.102Z,1.90
2022-10-26T09:34:21.540Z,2.30
2022-10-26T09:36:26.563Z,2.20
2022-10-26T09:38:33.476Z,2.40
2022-10-26T09:40:45.275Z,2.63
2022-10-26T09:42:55.153Z,2.85
2022-10-26T09:45:04.779Z,2.30
2022-10-26T09:47:18.890Z,2.15
2022-10-26T09:49:33.103Z,2.03
2022-10-26T09:51:42.478Z,1.90
2022-10-26T09:53:47.393Z,2.13
2022-10-26T09:56:04.229Z,3.00
2022-10-26T09:58:16.755Z,2.60
2022-10-26T10:00:23.638Z,2.45
2022-10-26T10:02:40.015Z,2.10
2022-10-26T10:04:50.758Z,2.55
2022-10-26T10:07:14.726Z,2.30
2022-10-26T10:09:21.158Z,2.55
2022-10-26T10:11:39.491Z,2.55
2022-10-26T10:13:45.955Z,2.40
2022-10-26T10:15:57.968Z,3.00
2022-10-26T10:18:03.401Z,2.67
2022-10-26T10:20:22.669Z,2.40
2022-10-26T10:22:31.110Z,2.50
2022-10-26T10:24:38.477Z,2.33
2022-10-26T10:26:59.819Z,2.10
2022-10-26T10:29:04.593Z,2.20
2022-10-26T10:31:22.682Z,2.53
2022-10-26T10:33:36.470Z,2.00
2022-10-26T10:35:52.904Z,2.45
2022-10-26T10:37:57.664Z,2.42
2022-10-26T10:40:05.306Z,2.00
2022-10-26T10:42:20.051Z,2.45
2022-10-26T10:44:30.188Z,2.40
2022-10-26T10:46:35.168Z,2.40
2022-10-26T10:48:49.259Z,2.22
2022-10-26T10:50:59.724Z,2.40
2022-10-26T10:53:23.350Z,2.63
2022-10-26T10:55:31.238Z,2.80
2022-10-26T10:57:48.052Z,2.30
2022-10-26T11:00:05.423Z,2.15
2022-10-26T11:02:34.698Z,2.00
2022-10-26T11:05:15.170Z,2.30
2022-10-26T11:07:25.038Z,2.50
2022-10-26T11:09:32.456Z,3.40
2022-10-26T11:11:45.458Z,2.55
2022-10-26T11:13:56.791Z,2.63
2022-10-26T11:16:05.816Z,2.08
2022-10-26T11:18:15.961Z,2.00
2022-10-26T11:20:26.136Z,2.05
2022-10-26T11:22:38.554Z,2.30
2022-10-26T11:24:47.637Z,2.05
2022-10-26T11:26:57.337Z,2.35
2022-10-26T11:29:06.078Z,2.58
2022-10-26T11:31:16.318Z,2.60
2022-10-26T11:33:28.510Z,2.47
2022-10-26T11:35:38.440Z,2.60
2022-10-26T11:37:50.683Z,2.78
2022-10-26T11:40:05.574Z,2.40
2022-10-26T11:42:22.885Z,2.85
2022-10-26T11:44:34.525Z,2.40
2022-10-26T11:46:44.615Z,2.53
2022-10-26T11:48:57.294Z,2.33
2022-10-26T11:51:02.995Z,2.47
2022-10-26T11:53:15.748Z,2.08
2022-10-26T11:55:21.750Z,2.17
2022-10-26T11:57:29.070Z,2.35
2022-10-26T11:59:36.507Z,2.38
2022-10-26T12:01:41.368Z,2.97
2022-10-26T12:03:51.189Z,2.20
2022-10-26T12:05:56.918Z,1.90
2022-10-26T12:08:06.817Z,2.30
2022-10-26T12:10:27.691Z,1.92
2022-10-26T12:12:43.036Z,2.90
2022-10-26T12:14:52.294Z,2.20
2022-10-26T12:17:05.427Z,2.25
2022-10-26T12:19:18.791Z,2.28
2022-10-26T12:21:23.982Z,2.20
2022-10-26T12:23:40.485Z,3.63
2022-10-26T12:26:30.209Z,2.50
2022-10-26T12:28:43.706Z,2.22
2022-10-26T12:30:48.473Z,2.22
2022-10-26T12:32:56.053Z,2.40
2022-10-26T12:35:06.800Z,2.28
2022-10-26T12:37:29.331Z,2.13
2022-10-26T12:39:35.672Z,1.77
2022-10-26T12:41:43.290Z,2.05
2022-10-26T12:43:48.512Z,2.47
2022-10-26T12:46:23.124Z,2.80
2022-10-26T12:48:43.122Z,2.10
2022-10-26T12:50:47.884Z,2.13
2022-10-26T12:52:56.067Z,2.25
2022-10-26T12:55:20.905Z,2.13
2022-10-26T12:57:35.644Z,1.80
2022-10-26T12:59:49.008Z,2.00
2022-10-26T13:02:29.369Z,2.42
2022-10-26T13:05:22.348Z,2.30
2022-10-26T13:07:28.635Z,2.75
2022-10-26T13:09:35.854Z,2.45
2022-10-26T13:11:48.884Z,2.78
2022-10-26T13:14:03.445Z,2.47
2022-10-26T13:16:13.056Z,2.40
2022-10-26T13:18:20.780Z,2.38
2022-10-26T13:20:25.731Z,2.50
2022-10-26T13:22:31.434Z,2.30
2022-10-26T13:27:12.536Z,2.83
2022-10-26T13:29:19.942Z,2.72
2022-10-26T13:31:54.673Z,2.35
2022-10-26T13:34:03.024Z,2.20
2022-10-26T13:36:21.045Z,2.40
2022-10-26T13:38:30.030Z,2.40
2022-10-26T13:40:35.003Z,2.35
2022-10-26T13:42:48.704Z,2.30
2022-10-26T13:44:59.080Z,2.63
2022-10-26T13:47:07.009Z,2.53
2022-10-26T13:49:21.091Z,3.15
2022-10-26T13:51:44.006Z,2.38
2022-10-26T13:53:55.371Z,2.65
2022-10-26T13:56:06.113Z,2.63
2022-10-26T13:58:21.394Z,2.60
2022-10-26T14:00:31.844Z,4.30
2022-10-26T14:02:36.696Z,3.17
2022-10-26T14:04:41.422Z,2.45
2022-10-26T14:06:51.775Z,2.83
2022-10-26T14:09:00.845Z,2.58
2022-10-26T14:11:05.966Z,2.75
2022-10-26T14:13:12.293Z,2.25
2022-10-26T14:15:18.340Z,2.30
2022-10-26T14:17:28.670Z,2.35
2022-10-26T14:19:36.014Z,2.13
2022-10-26T14:21:50.056Z,2.40
2022-10-26T14:23:57.070Z,2.08
2022-10-26T14:26:02.012Z,3.00
2022-10-26T14:28:28.299Z,3.00
2022-10-26T14:30:37.202Z,2.80
2022-10-26T14:32:44.611Z,3.17
2022-10-26T14:34:49.480Z,3.22
2022-10-26T14:36:58.795Z,2.70
2022-10-26T14:39:06.404Z,3.15
2022-10-26T14:41:11.457Z,2.72
2022-10-26T14:47:59.180Z,3.65
2022-10-26T14:50:05.035Z,3.67
2022-10-26T14:52:10.511Z,4.22
2022-10-26T14:54:23.685Z,3.30
2022-10-26T14:56:31.875Z,3.00
2022-10-26T14:58:37.840Z,3.28
2022-10-26T15:00:43.336Z,3.78
2022-10-26T15:02:50.731Z,4.28
2022-10-26T15:05:03.866Z,3.47
2022-10-26T15:07:18.334Z,3.22
2022-10-26T15:09:41.868Z,3.00
2022-10-26T15:11:47.198Z,2.80
2022-10-26T15:13:52.089Z,2.88
2022-10-26T15:15:58.560Z,2.88
2022-10-26T15:18:04.527Z,2.95
2022-10-26T15:20:18.877Z,2.78
2022-10-26T15:22:32.053Z,3.53
2022-10-26T15:24:40.674Z,3.60
2022-10-26T15:26:46.330Z,4.10
2022-10-26T15:28:52.858Z,4.63
2022-10-26T15:31:05.744Z,4.20
2022-10-26T15:33:22.926Z,3.40
2022-10-26T15:35:32.970Z,3.50
2022-10-26T15:37:37.725Z,3.33
2022-10-26T15:39:42.801Z,3.25
2022-10-26T15:41:50.371Z,2.92
2022-10-26T15:43:57.637Z,3.97
2022-10-26T15:46:02.402Z,3.58
2022-10-26T15:48:22.855Z,4.18
2022-10-26T15:50:31.661Z,3.13
2022-10-26T15:52:36.358Z,3.40
2022-10-26T15:54:41.076Z,2.85
2022-10-26T15:56:46.463Z,3.53
2022-10-26T15:58:51.195Z,3.60
2022-10-26T16:00:56.005Z,2.95
2022-10-26T16:03:00.919Z,3.65
2022-10-26T16:05:05.847Z,4.00
2022-10-26T16:07:15.825Z,3.67
2022-10-26T16:09:21.672Z,4.97
2022-10-26T16:11:28.638Z,4.20
2022-10-26T16:13:33.460Z,4.38
2022-10-26T16:15:39.793Z,5.03
2022-10-26T16:17:44.549Z,5.05
2022-10-26T16:19:50.758Z,4.88
2022-10-26T16:21:55.555Z,5.47
2022-10-26T16:24:02.905Z,6.32
2022-10-26T16:26:08.055Z,5.63
2022-10-26T16:30:19.503Z,4.65
2022-10-26T16:32:26.885Z,4.90
2022-10-26T16:34:31.805Z,5.00
2022-10-26T16:36:38.699Z,4.82
2022-10-26T16:38:43.713Z,4.95
2022-10-26T16:40:51.175Z,4.75
2022-10-26T16:42:55.878Z,5.78
2022-10-26T16:45:02.789Z,6.15
2022-10-26T16:47:08.131Z,6.72
2022-10-26T16:49:13.081Z,8.00
2022-10-26T16:51:19.923Z,7.72
2022-10-26T16:53:24.814Z,7.38
2022-10-26T16:55:29.887Z,6.72
2022-10-26T16:59:42.594Z,6.65
2022-10-26T17:01:47.374Z,7.35
2022-10-26T17:03:54.166Z,6.25
2022-10-26T17:06:00.636Z,6.75
2022-10-26T17:08:05.485Z,5.68
2022-10-26T17:10:11.169Z,6.32
2022-10-26T17:12:16.975Z,5.40
2022-10-26T17:14:24.424Z,5.60
2022-10-26T17:16:29.497Z,6.25
2022-10-26T17:20:39.000Z,6.35
2022-10-26T17:22:43.820Z,6.10
2022-10-26T17:24:48.722Z,6.13
2022-10-26T17:26:53.457Z,6.35
2022-10-26T17:29:00.271Z,6.70
2022-10-26T17:31:10.012Z,6.93
2022-10-26T17:33:15.297Z,8.77
2022-10-26T17:35:20.144Z,8.57
2022-10-26T17:37:24.990Z,9.85
2022-10-26T17:41:34.620Z,8.80
2022-10-26T17:43:41.822Z,10.25
2022-10-26T17:45:46.605Z,10.60
2022-10-26T17:47:54.063Z,10.23
2022-10-26T17:49:59.004Z,10.02
2022-10-26T17:52:04.210Z,9.10
2022-10-26T17:54:09.465Z,10.13
2022-10-26T17:58:19.804Z,9.10
2022-10-26T18:00:24.553Z,9.40
2022-10-26T18:02:31.967Z,7.75
2022-10-26T18:04:39.463Z,7.78
2022-10-26T18:06:44.212Z,6.65
2022-10-26T18:08:49.279Z,7.38
2022-10-26T18:10:55.465Z,7.22
2022-10-26T18:13:00.180Z,5.53
2022-10-26T18:15:05.133Z,6.00
2022-10-26T18:17:09.862Z,6.25
2022-10-26T18:19:14.811Z,5.53
2022-10-26T18:21:23.553Z,8.30
2022-10-26T18:23:28.568Z,8.57
2022-10-26T18:25:34.063Z,8.23
2022-10-26T18:27:38.915Z,7.63
2022-10-26T18:29:43.664Z,7.03
2022-10-26T18:33:58.197Z,10.17
2022-10-26T18:36:08.185Z,10.90
2022-10-26T18:38:15.540Z,14.63
2022-10-26T18:40:20.517Z,16.00
2022-10-26T18:42:28.026Z,15.73
2022-10-26T18:44:32.846Z,15.65
2022-10-26T18:46:45.483Z,16.90
2022-10-26T18:48:50.303Z,16.52
2022-10-26T18:50:54.981Z,21.35
2022-10-26T18:52:59.842Z,23.40
2022-10-26T18:55:07.791Z,28.05
2022-10-26T18:57:12.546Z,27.75
2022-10-26T18:59:17.318Z,21.42
2022-10-26T19:01:24.151Z,17.92
2022-10-26T19:03:29.184Z,15.43
2022-10-26T19:05:34.001Z,13.27
2022-10-26T19:07:40.174Z,12.35
2022-10-26T19:09:45.020Z,12.20
2022-10-26T19:11:52.497Z,12.05
2022-10-26T19:13:58.056Z,11.32
2022-10-26T19:16:05.212Z,11.57
2022-10-26T19:18:10.061Z,11.85
2022-10-26T19:20:14.932Z,9.95
2022-10-26T19:22:22.466Z,9.23
2022-10-26T19:24:27.314Z,9.02
2022-10-26T19:26:36.780Z,8.70
2022-10-26T19:28:46.044Z,8.00
2022-10-26T19:30:50.791Z,9.10
2022-10-26T19:32:55.656Z,7.22
2022-10-26T19:35:00.397Z,7.38
2022-10-26T19:37:05.684Z,7.78
2022-10-26T19:39:10.467Z,7.57
2022-10-26T19:41:17.081Z,6.80
2022-10-26T19:43:24.802Z,7.97
2022-10-26T19:45:32.272Z,9.02
2022-10-26T19:47:37.124Z,10.05
2022-10-26T19:49:42.058Z,9.15
2022-10-26T19:51:47.947Z,8.82
2022-10-26T19:53:52.768Z,9.02
2022-10-26T19:55:59.926Z,9.23
2022-10-26T19:58:04.639Z,11.15
2022-10-26T20:00:11.358Z,11.70
2022-10-26T20:02:26.612Z,12.07
2022-10-26T20:04:31.511Z,12.30
2022-10-26T20:06:36.284Z,10.90
2022-10-26T20:08:41.705Z,11.10
2022-10-26T20:10:47.311Z,12.95
2022-10-26T20:12:52.463Z,13.77
2022-10-26T20:14:57.494Z,13.98
2022-10-26T20:17:02.267Z,13.10
2022-10-26T20:19:09.633Z,16.15
2022-10-26T20:21:16.404Z,19.48
2022-10-26T20:23:21.168Z,16.25
2022-10-26T20:25:26.089Z,13.88
2022-10-26T20:27:30.943Z,12.95
2022-10-26T20:29:35.737Z,12.85
2022-10-26T20:31:40.443Z,10.63
2022-10-26T20:33:45.843Z,9.90
2022-10-26T20:35:58.465Z,10.02
2022-10-26T20:38:04.556Z,9.73
2022-10-26T20:40:12.616Z,7.95
2022-10-26T20:42:28.394Z,9.45
2022-10-26T20:44:37.993Z,8.73
2022-10-26T20:46:43.525Z,8.55
2022-10-26T20:48:48.975Z,9.13
2022-10-26T20:51:06.033Z,8.43
2022-10-26T20:53:16.721Z,7.60
2022-10-26T20:55:32.088Z,8.68
2022-10-26T20:57:38.176Z,8.55
2022-10-26T20:59:49.553Z,7.60
2022-10-26T21:01:54.429Z,7.28
2022-10-26T21:04:00.519Z,9.10
2022-10-26T21:06:08.294Z,9.25
2022-10-26T21:08:13.095Z,8.73
2022-10-26T21:10:18.018Z,9.10
2022-10-26T21:12:22.871Z,9.38
2022-10-26T21:14:27.643Z,10.52
2022-10-26T21:16:32.442Z,10.63
2022-10-26T21:18:37.313Z,9.27
2022-10-26T21:20:42.025Z,9.98
2022-10-26T21:22:49.386Z,8.65
2022-10-26T21:24:54.181Z,8.45
2022-10-26T21:26:58.887Z,8.05
2022-10-26T21:29:03.925Z,7.70
2022-10-26T21:31:11.082Z,7.47
2022-10-26T21:33:16.003Z,9.32
2022-10-26T21:35:21.861Z,7.82
2022-10-26T21:37:28.086Z,9.25
2022-10-26T21:39:35.408Z,8.45
2022-10-26T21:41:40.137Z,7.18
2022-10-26T21:43:47.153Z,6.28
2022-10-26T21:45:59.078Z,6.20
2022-10-26T21:48:03.850Z,7.68
2022-10-26T21:50:09.761Z,6.88
2022-10-26T21:52:14.723Z,6.63
2022-10-26T21:54:19.444Z,6.43
2022-10-26T21:56:26.855Z,6.22
2022-10-26T21:58:32.309Z,5.75
2022-10-26T22:00:37.309Z,7.40
2022-10-26T22:02:42.067Z,6.82
2022-10-26T22:04:46.791Z,6.63
2022-10-26T22:06:51.513Z,7.45
2022-10-26T22:08:56.664Z,7.47
2022-10-26T22:13:08.588Z,7.55
2022-10-26T22:15:13.829Z,7.15
2022-10-26T22:19:23.126Z,6.78
2022-10-26T22:21:29.950Z,6.65
2022-10-26T22:23:36.871Z,6.13
2022-10-26T22:25:41.780Z,7.05
2022-10-26T22:27:46.840Z,6.82
2022-10-26T22:31:59.001Z,6.93
2022-10-26T22:34:07.726Z,8.95
2022-10-26T22:36:15.435Z,9.30
2022-10-26T22:38:20.134Z,9.10
2022-10-26T22:40:24.979Z,8.32
2022-10-26T22:44:34.644Z,6.78
2022-10-26T22:46:42.034Z,6.70
2022-10-26T22:48:47.233Z,6.78
2022-10-26T22:52:56.505Z,6.75
2022-10-26T22:55:01.277Z,7.30
2022-10-26T22:57:06.138Z,7.28
2022-10-26T22:59:10.941Z,7.13
2022-10-26T23:01:18.297Z,7.13
2022-10-26T23:03:25.879Z,6.88
2022-10-26T23:05:30.701Z,6.82
2022-10-26T23:07:35.439Z,7.07
2022-10-26T23:09:40.222Z,6.75
2022-10-26T23:11:44.961Z,6.97
2022-10-26T23:13:50.008Z,6.45
2022-10-26T23:15:54.724Z,6.13
2022-10-26T23:20:08.032Z,5.65
2022-10-26T23:22:12.780Z,5.70
2022-10-26T23:24:17.497Z,6.88
2022-10-26T23:26:23.786Z,5.25
2022-10-26T23:28:31.295Z,5.35
2022-10-26T23:30:36.096Z,5.15
2022-10-26T23:32:40.795Z,5.90
2022-10-26T23:34:45.536Z,6.43
2022-10-26T23:36:53.358Z,5.53
2022-10-26T23:38:58.107Z,6.60
2022-10-26T23:41:03.128Z,5.75
2022-10-26T23:45:13.381Z,5.65
2022-10-26T23:47:18.100Z,5.85
2022-10-26T23:49:22.970Z,6.95
2022-10-26T23:51:27.810Z,6.28
2022-10-26T23:53:35.231Z,6.70
2022-10-26T23:55:40.130Z,7.22
2022-10-26T23:57:44.978Z,6.82
2022-10-26T23:59:49.730Z,6.10
